Time;durP1;ratioP1;P1;durP2;ratioP2;P2;SDS_P1;SDS_P2;PMS_P1;PMS_P2;Temp;Humidity;BMP_temperature;BMP_pressure;BME280_temperature;BME280_humidity;BME280_pressure;Samples;Min_cycle;Max_cycle;Signal;HPM_P1;HPM_P2
2021/01/13 00:01:45;;;;;;;9.03;6.00;;;0.60;99.90;;;;;;5135349;27;20547;-61
2021/01/13 00:04:13;;;;;;;7.33;4.87;;;0.60;99.90;;;;;;5136778;27;20422;-63
2021/01/13 00:06:41;;;;;;;8.80;6.40;;;0.60;99.90;;;;;;5136737;27;20455;-61
2021/01/13 00:09:09;;;;;;;9.50;4.70;;;0.60;99.90;;;;;;5136444;27;20427;-62
2021/01/13 00:11:36;;;;;;;8.30;6.00;;;0.70;99.90;;;;;;5136983;27;20423;-61
2021/01/13 00:14:04;;;;;;;10.00;6.23;;;0.80;99.90;;;;;;5135451;27;20914;-62
2021/01/13 00:16:31;;;;;;;8.03;5.90;;;0.70;99.90;;;;;;5135708;27;20510;-61
2021/01/13 00:18:59;;;;;;;9.73;6.30;;;0.80;99.90;;;;;;5138546;27;20422;-61
2021/01/13 00:21:26;;;;;;;10.93;6.43;;;0.90;99.90;;;;;;5142006;27;20467;-61
2021/01/13 00:23:53;;;;;;;8.13;5.60;;;0.90;99.90;;;;;;5137005;27;20431;-61
2021/01/13 00:26:24;;;;;;;7.43;5.57;;;0.80;99.90;;;;;;5137755;27;20793;-61
2021/01/13 00:28:51;;;;;;;7.77;4.70;;;0.80;99.90;;;;;;5136901;27;20467;-61
2021/01/13 00:31:21;;;;;;;10.10;5.80;;;0.70;99.90;;;;;;5135330;27;20471;-61
2021/01/13 00:33:49;;;;;;;11.60;5.60;;;0.60;99.90;;;;;;5136528;27;20663;-61
2021/01/13 00:36:18;;;;;;;8.67;5.70;;;0.60;99.90;;;;;;5136534;27;20817;-61
2021/01/13 00:38:45;;;;;;;9.83;6.07;;;0.60;99.90;;;;;;5135601;27;20483;-60
2021/01/13 00:41:13;;;;;;;7.10;5.70;;;0.60;99.90;;;;;;5136247;27;20956;-63
2021/01/13 00:43:40;;;;;;;9.90;6.47;;;0.70;99.90;;;;;;5136178;27;20446;-64
2021/01/13 00:46:08;;;;;;;9.93;6.10;;;0.60;99.90;;;;;;5135188;27;20471;-64
2021/01/13 00:48:37;;;;;;;9.53;6.70;;;0.70;99.90;;;;;;5136198;27;20451;-61
2021/01/13 00:51:04;;;;;;;11.87;6.13;;;0.60;99.90;;;;;;5136465;27;20526;-60
2021/01/13 00:53:33;;;;;;;10.57;6.20;;;0.70;99.90;;;;;;5135532;27;20481;-61
2021/01/13 00:56:02;;;;;;;8.60;6.00;;;0.80;99.90;;;;;;5135948;27;20454;-61
2021/01/13 00:58:29;;;;;;;9.53;7.23;;;0.80;99.90;;;;;;5136085;27;20940;-61
2021/01/13 01:00:57;;;;;;;7.77;6.33;;;0.60;99.90;;;;;;5134553;27;20435;-61
2021/01/13 01:03:27;;;;;;;7.47;5.40;;;0.60;99.90;;;;;;5135811;27;20766;-61
2021/01/13 01:06:00;;;;;;;9.70;5.87;;;0.60;99.90;;;;;;5135565;27;20427;-61
2021/01/13 01:08:28;;;;;;;11.30;6.83;;;0.50;99.90;;;;;;5135625;27;20438;-61
2021/01/13 01:10:57;;;;;;;8.47;6.30;;;0.40;99.90;;;;;;5134925;27;20906;-61
2021/01/13 01:13:25;;;;;;;9.23;6.50;;;0.40;99.90;;;;;;5133939;27;20431;-61
2021/01/13 01:15:52;;;;;;;9.20;6.13;;;0.40;99.90;;;;;;5134510;27;20875;-61
2021/01/13 01:18:20;;;;;;;17.07;6.70;;;0.40;99.90;;;;;;5134332;27;20946;-61
2021/01/13 01:20:48;;;;;;;11.93;6.17;;;0.30;99.90;;;;;;5135450;27;20519;-62
2021/01/13 01:23:16;;;;;;;17.00;6.90;;;0.30;99.90;;;;;;5137264;27;20434;-61
2021/01/13 01:25:45;;;;;;;6.90;5.80;;;0.30;99.90;;;;;;5134984;27;20479;-61
2021/01/13 01:31:05;;;;;;;12.63;6.43;;;0.30;99.90;;;;;;5132417;27;20474;-60
2021/01/13 01:33:32;;;;;;;8.40;6.00;;;0.40;99.90;;;;;;5134656;27;20484;-60
2021/01/13 01:35:59;;;;;;;9.40;5.77;;;0.40;99.90;;;;;;5134622;27;20467;-64
2021/01/13 01:38:28;;;;;;;7.63;5.23;;;0.40;99.90;;;;;;5134785;27;21038;-61
2021/01/13 01:41:02;;;;;;;11.20;5.93;;;0.40;99.90;;;;;;5134448;27;20825;-61
2021/01/13 01:43:31;;;;;;;12.67;6.23;;;0.40;99.90;;;;;;5134499;27;20455;-63
2021/01/13 01:46:03;;;;;;;9.80;5.53;;;0.50;99.90;;;;;;5133089;27;20445;-61
2021/01/13 01:48:34;;;;;;;10.80;6.20;;;0.60;99.90;;;;;;5134840;27;20439;-61
2021/01/13 01:51:02;;;;;;;8.53;6.33;;;0.60;99.90;;;;;;5134364;27;20546;-61
2021/01/13 01:54:03;;;;;;;12.00;7.20;;;0.60;99.90;;;;;;5133124;27;20452;-61
2021/01/13 01:56:37;;;;;;;9.90;5.90;;;0.60;99.90;;;;;;5134199;27;20458;-61
2021/01/13 01:59:06;;;;;;;8.90;6.87;;;0.50;99.90;;;;;;5134422;28;20426;-60
2021/01/13 02:01:36;;;;;;;18.80;7.00;;;0.50;99.90;;;;;;5133058;27;20994;-61
2021/01/13 02:04:06;;;;;;;10.23;6.50;;;0.40;99.90;;;;;;5134364;28;20434;-64
2021/01/13 02:06:41;;;;;;;15.77;7.50;;;0.40;99.90;;;;;;5134472;27;20441;-61
2021/01/13 02:09:10;;;;;;;11.50;7.50;;;0.50;99.90;;;;;;5138600;27;20481;-62
2021/01/13 02:11:44;;;;;;;10.47;5.97;;;0.50;99.90;;;;;;5145260;28;20921;-61
2021/01/13 02:14:13;;;;;;;14.23;7.20;;;0.60;99.90;;;;;;5134952;27;20842;-60
2021/01/13 02:16:48;;;;;;;12.93;7.53;;;0.60;99.90;;;;;;5133736;27;20471;-61
2021/01/13 02:19:45;;;;;;;8.37;5.87;;;0.60;99.90;;;;;;5134907;28;20468;-61
2021/01/13 02:22:14;;;;;;;12.13;5.93;;;0.70;99.90;;;;;;5128840;27;20454;-61
2021/01/13 02:25:28;;;;;;;10.33;5.70;;;0.70;99.90;;;;;;5134448;28;20517;-61
2021/01/13 02:28:03;;;;;;;8.40;5.90;;;0.70;99.90;;;;;;5145912;28;20443;-62
2021/01/13 02:30:36;;;;;;;10.53;6.77;;;0.70;99.90;;;;;;5140291;27;20539;-61
2021/01/13 02:33:10;;;;;;;8.30;6.40;;;0.80;99.90;;;;;;5134183;27;20468;-63
2021/01/13 02:36:00;;;;;;;10.20;6.37;;;0.80;99.90;;;;;;5134860;27;20462;-60
2021/01/13 02:38:33;;;;;;;10.60;6.40;;;0.90;99.90;;;;;;5135402;27;20438;-61
2021/01/13 02:41:00;;;;;;;10.63;6.50;;;0.90;99.90;;;;;;5139063;28;20430;-62
2021/01/13 02:43:30;;;;;;;12.70;7.60;;;0.90;99.90;;;;;;5154919;28;20433;-61
2021/01/13 02:46:13;;;;;;;14.07;6.60;;;0.90;99.90;;;;;;5137269;27;20423;-61
2021/01/13 02:48:41;;;;;;;11.57;6.63;;;0.90;99.90;;;;;;5134950;27;20460;-61
2021/01/13 02:51:21;;;;;;;10.77;6.30;;;1.00;99.90;;;;;;5134753;28;20820;-63
2021/01/13 02:53:56;;;;;;;16.83;7.50;;;0.90;99.90;;;;;;5135005;27;20557;-62
2021/01/13 02:56:40;;;;;;;11.13;7.07;;;1.00;99.90;;;;;;5135139;27;20462;-61
2021/01/13 02:59:10;;;;;;;10.90;6.50;;;1.00;99.90;;;;;;5133020;27;20443;-61
2021/01/13 03:01:43;;;;;;;11.03;7.10;;;0.90;99.90;;;;;;5135625;27;20463;-60
2021/01/13 03:04:12;;;;;;;14.90;7.97;;;1.00;99.90;;;;;;5138887;27;20436;-60
2021/01/13 03:06:46;;;;;;;9.53;5.67;;;0.90;99.90;;;;;;5138835;27;20453;-61
2021/01/13 03:09:14;;;;;;;12.20;6.40;;;1.00;99.90;;;;;;5138804;27;20804;-64
2021/01/13 03:11:43;;;;;;;10.67;5.97;;;1.00;99.90;;;;;;5139362;27;20430;-63
2021/01/13 03:14:26;;;;;;;10.87;7.30;;;0.90;99.90;;;;;;5140145;27;20509;-60
2021/01/13 03:17:08;;;;;;;13.23;7.03;;;0.90;99.90;;;;;;5139255;27;20565;-60
2021/01/13 03:20:01;;;;;;;12.40;6.30;;;0.90;99.90;;;;;;5141060;27;20438;-61
2021/01/13 03:22:36;;;;;;;9.33;6.60;;;0.90;99.90;;;;;;5143019;27;20466;-62
2021/01/13 03:25:05;;;;;;;8.37;7.30;;;0.80;99.90;;;;;;5139061;27;20521;-62
2021/01/13 03:27:34;;;;;;;9.17;6.20;;;0.80;99.90;;;;;;5139626;27;20459;-61
2021/01/13 03:30:06;;;;;;;11.50;5.70;;;0.80;99.90;;;;;;5139451;27;20416;-61
2021/01/13 03:32:46;;;;;;;9.30;5.60;;;0.90;99.90;;;;;;5139056;27;20474;-60
2021/01/13 03:35:14;;;;;;;10.50;7.13;;;0.90;99.90;;;;;;5139619;27;20844;-61
2021/01/13 03:37:59;;;;;;;10.53;6.90;;;0.90;99.90;;;;;;5140032;27;20502;-61
2021/01/13 03:40:28;;;;;;;8.80;6.10;;;0.90;99.90;;;;;;5139349;27;20433;-63
2021/01/13 03:42:57;;;;;;;10.80;6.30;;;0.90;99.90;;;;;;5136853;27;20426;-62
2021/01/13 03:45:38;;;;;;;11.87;6.17;;;0.90;99.90;;;;;;5136565;27;20456;-61
2021/01/13 03:48:17;;;;;;;11.67;6.90;;;0.90;99.90;;;;;;5136865;27;20539;-60
2021/01/13 03:50:46;;;;;;;17.17;6.17;;;0.80;99.90;;;;;;5137106;27;20438;-61
2021/01/13 03:53:15;;;;;;;10.03;5.43;;;0.80;99.90;;;;;;5137096;27;20438;-61
2021/01/13 03:55:44;;;;;;;15.37;6.67;;;0.90;99.90;;;;;;5137245;27;20559;-61
2021/01/13 03:58:49;;;;;;;8.33;6.70;;;0.90;99.90;;;;;;5137143;27;20895;-61
2021/01/13 04:01:54;;;;;;;6.53;5.60;;;0.90;99.90;;;;;;5149610;27;20488;-62
2021/01/13 04:04:44;;;;;;;6.67;5.70;;;0.90;99.90;;;;;;5137449;27;20438;-61
2021/01/13 04:07:14;;;;;;;14.30;5.53;;;0.90;99.90;;;;;;5135756;27;20505;-61
2021/01/13 04:09:43;;;;;;;10.90;6.30;;;0.90;99.90;;;;;;5139015;27;20469;-64
2021/01/13 04:12:13;;;;;;;7.93;6.23;;;0.90;99.90;;;;;;5151809;27;20435;-62
2021/01/13 04:14:49;;;;;;;8.97;5.73;;;0.90;99.90;;;;;;5151177;27;20434;-63
2021/01/13 04:17:47;;;;;;;9.67;5.93;;;0.90;99.90;;;;;;5165220;27;20534;-64
2021/01/13 04:20:17;;;;;;;7.07;5.70;;;0.90;99.90;;;;;;5150223;27;20457;-62
2021/01/13 04:22:49;;;;;;;13.27;5.07;;;0.90;99.90;;;;;;5146487;27;20455;-61
2021/01/13 04:25:17;;;;;;;8.90;4.80;;;0.90;99.90;;;;;;5149187;27;20473;-62
2021/01/13 04:27:45;;;;;;;14.60;5.40;;;0.90;99.90;;;;;;5149507;27;20427;-62
2021/01/13 04:30:14;;;;;;;10.60;5.20;;;0.90;99.90;;;;;;5152370;27;20506;-61
2021/01/13 04:32:42;;;;;;;16.80;6.70;;;0.90;99.90;;;;;;5149882;27;20535;-62
2021/01/13 04:35:11;;;;;;;10.80;5.50;;;0.90;99.90;;;;;;5151297;27;20433;-61
2021/01/13 04:37:40;;;;;;;12.47;6.53;;;0.80;99.90;;;;;;5151849;27;20459;-61
2021/01/13 04:40:26;;;;;;;9.87;5.30;;;0.80;99.90;;;;;;5150218;27;20458;-62
2021/01/13 04:43:00;;;;;;;6.63;5.03;;;0.70;99.90;;;;;;5149160;27;20440;-61
2021/01/13 04:45:38;;;;;;;12.07;6.00;;;0.70;99.90;;;;;;5143548;27;20446;-61
2021/01/13 04:48:08;;;;;;;7.90;5.30;;;0.70;99.90;;;;;;5144837;27;20471;-61
2021/01/13 04:50:39;;;;;;;10.73;4.97;;;0.70;99.90;;;;;;5145741;27;20435;-62
2021/01/13 04:53:12;;;;;;;8.03;6.20;;;0.70;99.90;;;;;;5144473;27;20488;-61
2021/01/13 04:55:48;;;;;;;10.80;5.70;;;0.70;99.90;;;;;;5104267;28;20459;-61
2021/01/13 04:58:58;;;;;;;12.17;6.00;;;0.60;99.90;;;;;;5104268;28;20432;-61
2021/01/13 05:01:59;;;;;;;12.00;6.10;;;0.60;99.90;;;;;;5100433;28;20473;-62
2021/01/13 05:04:55;;;;;;;8.33;5.77;;;0.70;99.90;;;;;;5098335;28;20438;-61
2021/01/13 05:07:39;;;;;;;11.07;6.23;;;0.70;99.90;;;;;;5106765;28;20437;-61
2021/01/13 05:10:15;;;;;;;12.70;5.33;;;0.70;99.90;;;;;;5096506;28;20433;-62
2021/01/13 05:12:53;;;;;;;13.60;5.50;;;0.60;99.90;;;;;;5095996;28;20435;-62
2021/01/13 05:15:27;;;;;;;12.23;5.37;;;0.60;99.90;;;;;;5094478;28;20522;-61
2021/01/13 05:18:10;;;;;;;12.50;6.13;;;0.60;99.90;;;;;;5095278;28;20499;-62
2021/01/13 05:20:39;;;;;;;6.30;4.57;;;0.40;99.90;;;;;;5092470;28;20468;-61
2021/01/13 05:23:11;;;;;;;7.73;4.93;;;0.40;99.90;;;;;;5103456;28;21015;-62
2021/01/13 05:25:43;;;;;;;12.00;6.13;;;0.30;99.90;;;;;;5112302;28;20441;-62
2021/01/13 05:28:20;;;;;;;8.00;5.17;;;0.30;99.90;;;;;;5111374;28;20444;-61
2021/01/13 05:30:51;;;;;;;9.83;6.40;;;0.30;99.90;;;;;;5111321;28;20444;-62
2021/01/13 05:33:20;;;;;;;17.80;5.90;;;0.20;99.90;;;;;;5113240;28;20438;-62
2021/01/13 05:35:50;;;;;;;8.40;5.03;;;0.20;99.90;;;;;;5111559;28;20474;-61
2021/01/13 05:39:02;;;;;;;15.83;5.57;;;0.20;99.90;;;;;;5111931;28;20450;-62
2021/01/13 05:41:32;;;;;;;8.50;5.20;;;0.20;99.90;;;;;;5110425;28;20433;-62
2021/01/13 05:44:00;;;;;;;11.17;5.13;;;0.20;99.90;;;;;;5110958;28;20452;-61
2021/01/13 05:46:45;;;;;;;15.30;6.40;;;0.10;99.90;;;;;;5110552;28;20476;-62
2021/01/13 05:49:14;;;;;;;9.70;6.70;;;0.00;99.90;;;;;;5103224;28;20456;-61
2021/01/13 05:51:43;;;;;;;9.00;5.20;;;0.00;99.90;;;;;;5105598;28;20511;-61
2021/01/13 05:54:15;;;;;;;6.00;4.33;;;0.00;99.90;;;;;;5098923;28;20822;-64
2021/01/13 05:56:46;;;;;;;10.93;5.57;;;-0.10;99.90;;;;;;5094799;28;20564;-62
2021/01/13 05:59:14;;;;;;;6.70;4.67;;;-0.20;99.90;;;;;;5094541;28;20441;-63
2021/01/13 06:01:48;;;;;;;7.47;4.50;;;-0.10;99.90;;;;;;5093627;28;20526;-63
2021/01/13 06:04:17;;;;;;;7.57;6.10;;;-0.10;99.90;;;;;;5093950;28;20501;-62
2021/01/13 06:06:59;;;;;;;10.17;5.17;;;-0.10;99.90;;;;;;5093884;28;20793;-62
2021/01/13 06:09:28;;;;;;;8.57;5.73;;;-0.10;99.90;;;;;;5094576;28;20424;-62
2021/01/13 06:11:56;;;;;;;7.00;5.10;;;-0.20;99.90;;;;;;5094133;28;20433;-62
2021/01/13 06:14:25;;;;;;;13.27;6.47;;;-0.20;99.90;;;;;;5094380;28;20461;-62
2021/01/13 06:16:54;;;;;;;8.63;5.20;;;-0.20;99.90;;;;;;5093278;28;20898;-62
2021/01/13 06:19:23;;;;;;;10.73;6.53;;;-0.30;99.90;;;;;;5094518;28;20429;-62
2021/01/13 06:22:08;;;;;;;6.93;5.40;;;-0.30;99.90;;;;;;5094083;28;20437;-66
2021/01/13 06:24:37;;;;;;;7.70;4.27;;;-0.40;99.90;;;;;;5088513;28;20463;-61
2021/01/13 06:27:18;;;;;;;9.13;5.67;;;-0.40;99.90;;;;;;5093648;28;20512;-61
2021/01/13 06:29:50;;;;;;;14.20;5.63;;;-0.60;99.90;;;;;;5094073;28;20429;-62
2021/01/13 06:32:32;;;;;;;10.13;8.07;;;-0.60;99.90;;;;;;5093144;28;20484;-62
2021/01/13 06:35:15;;;;;;;9.80;5.93;;;-0.70;99.90;;;;;;5093373;28;20435;-61
2021/01/13 06:37:49;;;;;;;14.87;5.07;;;-0.60;99.90;;;;;;5097176;28;20890;-64
2021/01/13 06:40:18;;;;;;;9.57;7.00;;;-0.60;99.90;;;;;;5097254;28;20779;-62
2021/01/13 06:42:46;;;;;;;12.57;5.70;;;-0.60;99.90;;;;;;5098675;28;20519;-61
2021/01/13 06:45:30;;;;;;;12.87;5.20;;;-0.70;99.90;;;;;;5098060;28;20467;-63
2021/01/13 06:47:59;;;;;;;10.07;4.97;;;-0.60;99.90;;;;;;5098044;28;20456;-63
2021/01/13 06:50:34;;;;;;;9.40;6.20;;;-0.60;99.90;;;;;;5098138;28;20444;-61
2021/01/13 06:53:07;;;;;;;9.27;6.30;;;-0.60;99.90;;;;;;5098486;28;20927;-62
2021/01/13 06:55:36;;;;;;;11.37;5.87;;;-0.60;99.90;;;;;;5140114;27;20501;-61
2021/01/13 06:58:10;;;;;;;9.37;5.43;;;-0.40;99.90;;;;;;5156806;27;20466;-62
2021/01/13 07:00:37;;;;;;;8.50;4.70;;;-0.30;99.90;;;;;;5144520;27;20553;-61
2021/01/13 07:03:21;;;;;;;6.17;5.03;;;-0.20;99.90;;;;;;5138356;27;20572;-61
2021/01/13 07:05:50;;;;;;;9.03;5.23;;;-0.10;99.90;;;;;;5138014;27;20457;-61
2021/01/13 07:08:19;;;;;;;11.53;5.33;;;-0.10;99.90;;;;;;5138413;27;20522;-62
2021/01/13 07:10:46;;;;;;;16.47;6.13;;;-0.10;99.90;;;;;;5138148;27;20466;-61
2021/01/13 07:13:17;;;;;;;13.30;6.07;;;-0.10;99.90;;;;;;5119360;27;20484;-61
2021/01/13 07:15:45;;;;;;;10.43;5.27;;;-0.20;99.90;;;;;;5136204;27;20458;-60
2021/01/13 07:18:13;;;;;;;9.20;5.27;;;-0.20;99.90;;;;;;5137726;27;20506;-61
2021/01/13 07:20:41;;;;;;;9.27;5.73;;;-0.20;99.90;;;;;;5138277;27;20435;-61
2021/01/13 07:23:09;;;;;;;12.93;4.63;;;-0.20;99.90;;;;;;5137741;27;20946;-61
2021/01/13 07:25:44;;;;;;;12.17;6.20;;;-0.30;99.90;;;;;;5137714;27;20540;-64
2021/01/13 07:28:37;;;;;;;10.00;5.87;;;-0.10;99.90;;;;;;5138255;27;20441;-61
2021/01/13 07:31:07;;;;;;;12.77;6.43;;;-0.10;99.90;;;;;;5129541;27;20475;-61
2021/01/13 07:33:35;;;;;;;17.33;5.63;;;-0.10;99.90;;;;;;5118733;28;20494;-61
2021/01/13 07:36:04;;;;;;;8.77;6.40;;;-0.10;99.90;;;;;;5121766;28;20455;-61
2021/01/13 07:38:38;;;;;;;8.23;5.27;;;0.00;99.90;;;;;;5113114;28;20476;-61
2021/01/13 07:41:08;;;;;;;8.20;6.67;;;0.20;99.90;;;;;;5120019;28;20456;-61
2021/01/13 07:44:21;;;;;;;9.10;5.53;;;0.20;99.90;;;;;;5106960;28;20501;-61
2021/01/13 07:47:01;;;;;;;7.07;5.27;;;0.30;99.90;;;;;;5079281;27;20478;-61
2021/01/13 07:49:47;;;;;;;12.80;5.30;;;0.30;99.90;;;;;;5128890;27;20458;-61
2021/01/13 07:52:17;;;;;;;9.43;6.33;;;0.40;99.90;;;;;;5128776;27;20458;-62
2021/01/13 07:54:49;;;;;;;9.00;6.30;;;0.50;99.90;;;;;;5128175;27;20483;-61
2021/01/13 07:57:23;;;;;;;9.60;6.47;;;0.50;99.90;;;;;;5128766;27;20962;-61
2021/01/13 08:00:06;;;;;;;12.20;6.90;;;0.60;99.90;;;;;;5128612;27;20458;-60
2021/01/13 08:03:33;;;;;;;10.00;6.27;;;0.60;99.90;;;;;;5106734;28;20486;-61
2021/01/13 08:06:27;;;;;;;12.33;6.33;;;0.60;99.90;;;;;;4993155;28;21562;-61
2021/01/13 08:09:10;;;;;;;11.53;5.70;;;0.70;99.90;;;;;;5095137;28;20459;-61
2021/01/13 08:12:14;;;;;;;13.27;6.20;;;0.70;99.90;;;;;;5107199;28;20469;-60
2021/01/13 08:15:20;;;;;;;8.50;5.43;;;0.70;99.90;;;;;;5107234;28;20531;-61
2021/01/13 08:18:23;;;;;;;10.07;6.07;;;0.70;99.90;;;;;;5106831;28;20479;-61
2021/01/13 08:21:10;;;;;;;8.23;5.43;;;0.90;99.90;;;;;;5107627;28;20527;-61
2021/01/13 08:23:46;;;;;;;9.97;7.10;;;0.80;99.90;;;;;;5106699;28;20463;-61
2021/01/13 08:26:15;;;;;;;11.70;5.83;;;0.90;99.90;;;;;;5105873;28;20947;-61
2021/01/13 08:28:44;;;;;;;9.73;6.53;;;1.00;99.90;;;;;;5105765;28;20468;-62
2021/01/13 08:31:19;;;;;;;14.13;6.37;;;1.10;99.90;;;;;;5105721;28;20575;-61
2021/01/13 08:33:49;;;;;;;9.13;5.57;;;1.40;99.90;;;;;;5106776;28;20542;-61
2021/01/13 08:36:17;;;;;;;8.23;7.00;;;2.90;99.90;;;;;;5107284;27;20569;-61
2021/01/13 08:39:09;;;;;;;6.53;5.00;;;3.80;99.90;;;;;;5106674;28;20467;-61
2021/01/13 08:41:37;;;;;;;12.03;5.00;;;3.30;99.90;;;;;;5108657;28;20466;-61
2021/01/13 08:44:14;;;;;;;10.23;5.13;;;3.70;99.90;;;;;;5106559;28;20463;-61
2021/01/13 08:46:45;;;;;;;7.97;6.07;;;5.40;99.90;;;;;;5105518;28;20521;-61
2021/01/13 08:49:23;;;;;;;9.77;6.00;;;6.70;99.90;;;;;;5106870;28;20470;-61
2021/01/13 08:52:14;;;;;;;8.10;5.57;;;6.70;99.90;;;;;;5106961;28;20452;-62
2021/01/13 08:54:43;;;;;;;10.00;6.33;;;6.20;99.90;;;;;;5106673;28;20562;-62
2021/01/13 08:57:12;;;;;;;10.97;6.07;;;5.40;99.90;;;;;;5106514;28;20540;-62
2021/01/13 08:59:44;;;;;;;9.23;6.57;;;4.50;99.90;;;;;;5106251;28;20458;-62
2021/01/13 09:02:13;;;;;;;11.47;6.80;;;4.50;99.90;;;;;;5105856;28;20484;-62
2021/01/13 09:04:50;;;;;;;9.97;6.17;;;5.20;99.90;;;;;;5106825;28;20460;-62
2021/01/13 09:07:21;;;;;;;10.40;5.40;;;6.80;99.90;;;;;;5106878;28;20795;-61
2021/01/13 09:09:59;;;;;;;6.77;5.13;;;9.10;97.70;;;;;;5106464;28;20447;-63
2021/01/13 09:12:33;;;;;;;7.70;5.47;;;9.90;94.20;;;;;;5106518;28;20422;-60
2021/01/13 09:15:22;;;;;;;11.37;6.53;;;9.90;93.70;;;;;;5106216;28;20462;-61
2021/01/13 09:17:53;;;;;;;11.43;6.47;;;9.60;93.80;;;;;;5105567;27;20502;-61
2021/01/13 09:20:25;;;;;;;7.10;4.73;;;10.90;91.50;;;;;;5104946;28;20492;-60
2021/01/13 09:22:56;;;;;;;9.00;5.40;;;11.50;89.60;;;;;;5088362;28;21804;-61
2021/01/13 09:25:26;;;;;;;6.00;5.17;;;11.00;88.10;;;;;;5106674;28;21181;-61
2021/01/13 09:27:55;;;;;;;8.00;5.10;;;9.30;91.50;;;;;;5108377;28;20510;-63
2021/01/13 09:30:28;;;;;;;8.50;5.73;;;8.50;93.50;;;;;;5112287;27;20514;-61
2021/01/13 09:32:57;;;;;;;6.10;4.20;;;7.20;96.00;;;;;;5108122;27;20868;-61
2021/01/13 09:35:29;;;;;;;14.27;5.17;;;5.90;98.90;;;;;;5127378;27;20437;-61
2021/01/13 09:38:05;;;;;;;6.33;4.70;;;4.90;99.90;;;;;;5126948;27;20855;-61
2021/01/13 09:40:54;;;;;;;5.30;4.50;;;4.40;99.90;;;;;;5127022;27;20461;-61
2021/01/13 09:43:29;;;;;;;10.43;5.03;;;4.10;99.90;;;;;;5126874;27;20492;-61
2021/01/13 09:45:59;;;;;;;7.10;4.50;;;4.10;99.90;;;;;;5125531;27;20441;-61
2021/01/13 09:48:29;;;;;;;7.40;5.33;;;3.90;99.90;;;;;;5126425;27;20437;-61
2021/01/13 09:51:03;;;;;;;7.53;5.53;;;3.70;99.90;;;;;;5126812;27;20558;-61
2021/01/13 09:53:34;;;;;;;7.23;4.87;;;3.50;99.90;;;;;;5126411;27;20669;-62
2021/01/13 09:56:05;;;;;;;10.60;5.10;;;3.30;99.90;;;;;;5130656;27;21054;-61
2021/01/13 09:58:37;;;;;;;6.80;5.23;;;3.30;99.90;;;;;;5130015;28;22090;-62
2021/01/13 10:01:09;;;;;;;5.40;4.33;;;3.60;99.90;;;;;;5125703;28;20466;-64
2021/01/13 10:03:45;;;;;;;6.77;4.93;;;3.90;99.90;;;;;;5126562;28;20955;-61
2021/01/13 10:06:19;;;;;;;6.60;4.90;;;4.30;99.90;;;;;;5126176;28;20492;-60
2021/01/13 10:09:12;;;;;;;7.03;4.03;;;5.10;99.90;;;;;;5108154;28;20447;-60
2021/01/13 10:11:40;;;;;;;9.70;4.53;;;6.10;99.90;;;;;;5128735;27;20462;-61
2021/01/13 10:14:09;;;;;;;6.23;3.73;;;5.40;99.90;;;;;;5131698;27;20451;-61
2021/01/13 10:16:44;;;;;;;4.60;3.63;;;4.60;99.90;;;;;;5129537;27;20478;-61
2021/01/13 10:19:15;;;;;;;9.23;4.23;;;4.00;99.90;;;;;;5131612;27;20960;-63
2021/01/13 10:21:47;;;;;;;5.83;4.17;;;3.70;99.90;;;;;;5136997;27;20575;-62
2021/01/13 10:24:15;;;;;;;11.83;4.40;;;3.70;99.90;;;;;;5111627;27;20446;-62
2021/01/13 10:26:45;;;;;;;6.67;3.60;;;3.80;99.90;;;;;;5129864;27;20458;-62
2021/01/13 10:29:14;;;;;;;5.03;3.80;;;3.90;99.90;;;;;;5130039;27;20462;-62
2021/01/13 10:31:43;;;;;;;5.27;4.13;;;3.80;99.90;;;;;;5129217;27;20480;-62
2021/01/13 10:34:12;;;;;;;5.07;3.90;;;3.70;99.90;;;;;;5130048;27;20458;-62
2021/01/13 10:36:42;;;;;;;4.83;4.40;;;3.50;99.90;;;;;;5129610;27;20462;-62
2021/01/13 10:39:13;;;;;;;7.23;4.13;;;3.50;99.90;;;;;;5110888;27;21067;-61
2021/01/13 10:41:42;;;;;;;8.50;3.70;;;3.60;99.90;;;;;;5129687;27;20477;-61
2021/01/13 10:44:14;;;;;;;4.90;4.20;;;3.80;99.90;;;;;;5129426;27;20515;-62
2021/01/13 10:46:50;;;;;;;6.83;4.23;;;3.50;99.90;;;;;;5128566;27;20469;-62
2021/01/13 10:49:27;;;;;;;6.03;4.03;;;3.40;99.90;;;;;;5129375;27;20466;-61
2021/01/13 10:51:56;;;;;;;5.60;3.93;;;3.30;99.90;;;;;;5129634;27;20466;-61
2021/01/13 10:54:27;;;;;;;4.97;4.03;;;3.20;99.90;;;;;;5128997;27;20466;-62
2021/01/13 10:57:06;;;;;;;5.57;4.20;;;3.10;99.90;;;;;;5129007;27;20486;-62
2021/01/13 10:59:34;;;;;;;4.43;3.90;;;3.00;99.90;;;;;;5129450;27;20465;-62
2021/01/13 11:02:07;;;;;;;6.00;4.03;;;3.00;99.90;;;;;;5128317;27;20468;-61
2021/01/13 11:04:40;;;;;;;10.80;3.67;;;3.10;99.90;;;;;;5129393;27;20961;-62
2021/01/13 11:07:12;;;;;;;5.20;3.73;;;3.40;99.90;;;;;;5129306;27;20797;-62
2021/01/13 11:09:43;;;;;;;7.53;4.00;;;3.60;99.90;;;;;;5129708;27;20455;-62
2021/01/13 11:12:17;;;;;;;5.27;3.70;;;3.50;99.90;;;;;;5130768;27;20465;-62
2021/01/13 11:14:47;;;;;;;8.60;3.70;;;3.70;99.90;;;;;;5130030;27;20549;-62
2021/01/13 11:17:20;;;;;;;4.03;3.20;;;3.70;99.90;;;;;;5140346;27;20486;-62
2021/01/13 11:19:55;;;;;;;6.20;3.77;;;3.90;99.90;;;;;;5143226;27;20451;-62
2021/01/13 11:22:44;;;;;;;5.20;3.50;;;4.90;99.90;;;;;;5129128;27;20458;-62
2021/01/13 11:25:22;;;;;;;12.13;3.70;;;5.20;99.90;;;;;;5129520;27;20486;-62
2021/01/13 11:27:57;;;;;;;4.50;3.97;;;5.10;99.90;;;;;;5129256;27;21067;-62
2021/01/13 11:30:25;;;;;;;3.90;2.70;;;4.90;99.90;;;;;;5109662;27;20477;-62
2021/01/13 11:32:56;;;;;;;5.77;3.17;;;5.20;99.90;;;;;;5128573;27;20467;-62
2021/01/13 11:35:28;;;;;;;5.50;3.17;;;5.70;99.90;;;;;;5129380;27;20457;-62
2021/01/13 11:38:29;;;;;;;9.20;3.10;;;5.40;99.90;;;;;;5129029;27;20894;-62
2021/01/13 11:41:18;;;;;;;4.60;3.37;;;5.30;99.90;;;;;;5124904;27;21009;-62
2021/01/13 11:44:07;;;;;;;3.73;3.40;;;4.70;99.90;;;;;;5128798;27;20455;-62
2021/01/13 11:46:39;;;;;;;5.00;3.60;;;4.30;99.90;;;;;;5127747;27;20482;-61
2021/01/13 11:49:18;;;;;;;5.80;3.33;;;4.10;99.90;;;;;;5128838;27;20450;-61
2021/01/13 11:51:47;;;;;;;7.00;3.60;;;4.00;99.90;;;;;;5109610;27;20975;-61
2021/01/13 11:54:30;;;;;;;4.17;3.77;;;4.10;99.90;;;;;;5128444;27;20820;-61
2021/01/13 11:57:18;;;;;;;4.40;3.27;;;4.70;99.90;;;;;;5126442;27;20456;-62
2021/01/13 11:59:47;;;;;;;6.00;2.90;;;7.40;99.30;;;;;;5128254;27;20931;-61
2021/01/13 12:02:18;;;;;;;4.30;3.00;;;8.20;96.50;;;;;;5128696;27;20522;-61
2021/01/13 12:04:46;;;;;;;4.03;3.20;;;7.90;95.30;;;;;;5128653;27;20596;-62
2021/01/13 12:07:14;;;;;;;7.33;3.87;;;8.10;95.60;;;;;;5128805;27;20573;-61
2021/01/13 12:09:43;;;;;;;4.30;2.80;;;9.30;93.50;;;;;;5129597;27;20512;-61
2021/01/13 12:12:28;;;;;;;3.50;2.87;;;8.80;92.80;;;;;;5128539;27;20852;-62
2021/01/13 12:15:04;;;;;;;3.17;2.87;;;8.70;93.30;;;;;;5128881;27;20844;-62
2021/01/13 12:17:33;;;;;;;5.87;2.97;;;8.10;93.80;;;;;;5128585;27;20593;-61
2021/01/13 12:20:01;;;;;;;5.23;2.87;;;8.20;94.20;;;;;;5129394;27;20786;-61
2021/01/13 12:22:35;;;;;;;4.10;2.83;;;9.00;93.90;;;;;;5129371;27;20667;-62
2021/01/13 12:25:05;;;;;;;3.47;2.80;;;10.20;90.90;;;;;;5129143;27;20465;-61
2021/01/13 12:27:33;;;;;;;4.90;3.20;;;10.20;90.20;;;;;;5128961;27;20545;-61
2021/01/13 12:30:09;;;;;;;2.70;2.30;;;10.60;89.30;;;;;;5129018;27;20462;-62
2021/01/13 12:32:37;;;;;;;5.97;2.80;;;11.50;85.30;;;;;;5128648;27;20793;-60
2021/01/13 12:35:06;;;;;;;5.90;2.93;;;12.30;81.40;;;;;;5127697;27;20457;-62
2021/01/13 12:37:45;;;;;;;5.23;2.67;;;12.20;79.10;;;;;;5128464;27;20981;-61
2021/01/13 12:40:15;;;;;;;7.20;3.20;;;12.30;78.30;;;;;;5128594;27;20895;-61
2021/01/13 12:42:43;;;;;;;6.20;3.20;;;12.30;76.90;;;;;;5130401;27;20815;-62
2021/01/13 12:45:11;;;;;;;5.50;3.33;;;10.70;79.00;;;;;;5129649;27;20677;-61
2021/01/13 12:47:39;;;;;;;3.57;2.60;;;9.90;83.60;;;;;;5128168;27;20527;-62
2021/01/13 12:50:07;;;;;;;5.23;3.17;;;9.30;85.80;;;;;;5129092;27;20448;-61
2021/01/13 12:52:35;;;;;;;4.80;2.80;;;8.60;88.60;;;;;;5134909;27;20842;-63
2021/01/13 12:55:03;;;;;;;4.27;3.50;;;7.70;90.90;;;;;;5141151;27;20471;-62
2021/01/13 12:57:31;;;;;;;5.20;3.43;;;7.20;92.50;;;;;;5124057;27;20849;-61
2021/01/13 13:00:00;;;;;;;4.30;3.90;;;6.60;94.30;;;;;;5123866;27;20539;-61
2021/01/13 13:02:29;;;;;;;4.70;3.63;;;5.90;96.90;;;;;;5121515;27;20456;-62
2021/01/13 13:04:56;;;;;;;4.97;3.67;;;5.10;99.50;;;;;;5140683;27;20459;-61
2021/01/13 13:07:24;;;;;;;5.70;3.13;;;4.50;99.90;;;;;;5139873;27;20440;-61
2021/01/13 13:09:51;;;;;;;9.73;4.60;;;4.10;99.90;;;;;;5121722;27;20460;-62
2021/01/13 13:12:19;;;;;;;4.20;2.70;;;3.90;99.90;;;;;;5141758;27;20445;-62
2021/01/13 13:14:46;;;;;;;4.70;4.30;;;3.70;99.90;;;;;;5139002;27;20429;-62
2021/01/13 13:20:08;;;;;;;6.20;4.10;;;3.20;99.90;;;;;;5133160;27;20846;-61
2021/01/13 13:22:36;;;;;;;8.63;4.23;;;3.10;99.90;;;;;;5128065;27;20451;-62
2021/01/13 13:25:04;;;;;;;3.80;3.40;;;3.10;99.90;;;;;;5127637;27;20455;-61
2021/01/13 13:27:35;;;;;;;7.10;4.23;;;3.10;99.90;;;;;;5127928;27;20506;-61
2021/01/13 13:30:06;;;;;;;6.13;3.70;;;3.10;99.90;;;;;;5128008;27;20460;-61
2021/01/13 13:32:39;;;;;;;8.87;5.43;;;3.00;99.90;;;;;;5106152;28;20544;-61